sensor_id;sensor_type;location;lat;lon;timestamp;P1;durP1;ratioP1;P2;durP2;ratioP2
9224;SDS011;4647;48.072;11.616;2024-01-30T00:00:02;9.17;;;7.90;;
9224;SDS011;4647;48.072;11.616;2024-01-30T00:02:33;10.40;;;7.10;;
9224;SDS011;4647;48.072;11.616;2024-01-30T00:05:01;8.47;;;7.20;;
9224;SDS011;4647;48.072;11.616;2024-01-30T00:07:30;8.13;;;6.63;;
9224;SDS011;4647;48.072;11.616;2024-01-30T00:09:59;9.13;;;7.10;;
9224;SDS011;4647;48.072;11.616;2024-01-30T00:12:27;7.37;;;6.53;;
9224;SDS011;4647;48.072;11.616;2024-01-30T00:14:56;9.47;;;6.90;;
9224;SDS011;4647;48.072;11.616;2024-01-30T00:17:27;8.70;;;6.63;;
9224;SDS011;4647;48.072;11.616;2024-01-30T00:19:56;8.50;;;6.50;;
9224;SDS011;4647;48.072;11.616;2024-01-30T00:22:24;7.97;;;6.27;;
9224;SDS011;4647;48.072;11.616;2024-01-30T00:24:55;7.27;;;6.17;;
9224;SDS011;4647;48.072;11.616;2024-01-30T00:27:23;7.80;;;6.13;;
9224;SDS011;4647;48.072;11.616;2024-01-30T00:29:52;7.93;;;6.33;;
9224;SDS011;4647;48.072;11.616;2024-01-30T00:32:20;8.83;;;6.43;;
9224;SDS011;4647;48.072;11.616;2024-01-30T00:34:51;7.63;;;6.00;;
9224;SDS011;4647;48.072;11.616;2024-01-30T00:37:20;7.10;;;5.90;;
9224;SDS011;4647;48.072;11.616;2024-01-30T00:39:48;7.53;;;5.83;;
9224;SDS011;4647;48.072;11.616;2024-01-30T00:42:16;7.30;;;5.97;;
9224;SDS011;4647;48.072;11.616;2024-01-30T00:44:46;7.43;;;5.50;;
9224;SDS011;4647;48.072;11.616;2024-01-30T00:47:14;8.07;;;6.33;;
9224;SDS011;4647;48.072;11.616;2024-01-30T00:49:43;7.37;;;5.93;;
9224;SDS011;4647;48.072;11.616;2024-01-30T00:52:14;7.93;;;6.00;;
9224;SDS011;4647;48.072;11.616;2024-01-30T00:54:42;6.30;;;5.70;;
9224;SDS011;4647;48.072;11.616;2024-01-30T00:57:11;7.37;;;6.57;;
9224;SDS011;4647;48.072;11.616;2024-01-30T00:59:39;8.23;;;6.20;;
9224;SDS011;4647;48.072;11.616;2024-01-30T01:02:08;8.53;;;5.83;;
9224;SDS011;4647;48.072;11.616;2024-01-30T01:04:36;6.43;;;5.50;;
9224;SDS011;4647;48.072;11.616;2024-01-30T01:07:05;5.87;;;5.07;;
9224;SDS011;4647;48.072;11.616;2024-01-30T01:09:36;7.53;;;5.67;;
9224;SDS011;4647;48.072;11.616;2024-01-30T01:12:05;8.30;;;5.83;;
9224;SDS011;4647;48.072;11.616;2024-01-30T01:14:34;7.67;;;5.90;;
9224;SDS011;4647;48.072;11.616;2024-01-30T01:17:02;7.10;;;6.03;;
9224;SDS011;4647;48.072;11.616;2024-01-30T01:19:31;12.70;;;7.07;;
9224;SDS011;4647;48.072;11.616;2024-01-30T01:21:59;8.20;;;6.57;;
9224;SDS011;4647;48.072;11.616;2024-01-30T01:24:28;8.17;;;6.87;;
9224;SDS011;4647;48.072;11.616;2024-01-30T01:27:00;9.30;;;6.20;;
9224;SDS011;4647;48.072;11.616;2024-01-30T01:29:29;8.97;;;6.93;;
9224;SDS011;4647;48.072;11.616;2024-01-30T01:31:57;9.03;;;6.87;;
9224;SDS011;4647;48.072;11.616;2024-01-30T01:34:26;9.87;;;6.87;;
9224;SDS011;4647;48.072;11.616;2024-01-30T01:36:54;8.53;;;5.97;;
9224;SDS011;4647;48.072;11.616;2024-01-30T01:39:23;7.67;;;6.00;;
9224;SDS011;4647;48.072;11.616;2024-01-30T01:41:51;10.93;;;6.70;;
9224;SDS011;4647;48.072;11.616;2024-01-30T01:44:22;7.27;;;6.43;;
9224;SDS011;4647;48.072;11.616;2024-01-30T01:46:51;9.20;;;6.27;;
9224;SDS011;4647;48.072;11.616;2024-01-30T01:49:20;6.70;;;6.00;;
9224;SDS011;4647;48.072;11.616;2024-01-30T01:51:54;9.33;;;5.93;;
9224;SDS011;4647;48.072;11.616;2024-01-30T01:54:25;7.17;;;5.93;;
9224;SDS011;4647;48.072;11.616;2024-01-30T01:56:54;7.30;;;6.40;;
9224;SDS011;4647;48.072;11.616;2024-01-30T01:59:25;9.07;;;6.23;;
9224;SDS011;4647;48.072;11.616;2024-01-30T02:01:55;10.37;;;6.30;;
9224;SDS011;4647;48.072;11.616;2024-01-30T02:04:24;9.37;;;6.60;;
9224;SDS011;4647;48.072;11.616;2024-01-30T02:06:52;8.77;;;6.07;;
9224;SDS011;4647;48.072;11.616;2024-01-30T02:09:20;7.73;;;6.10;;
9224;SDS011;4647;48.072;11.616;2024-01-30T02:11:49;8.73;;;6.80;;
9224;SDS011;4647;48.072;11.616;2024-01-30T02:14:17;7.93;;;6.23;;
9224;SDS011;4647;48.072;11.616;2024-01-30T02:16:48;8.40;;;6.50;;
9224;SDS011;4647;48.072;11.616;2024-01-30T02:19:17;7.90;;;5.73;;
9224;SDS011;4647;48.072;11.616;2024-01-30T02:21:48;8.90;;;6.77;;
9224;SDS011;4647;48.072;11.616;2024-01-30T02:24:17;9.00;;;5.70;;
9224;SDS011;4647;48.072;11.616;2024-01-30T02:26:46;8.40;;;5.87;;
9224;SDS011;4647;48.072;11.616;2024-01-30T02:29:14;5.90;;;5.23;;
9224;SDS011;4647;48.072;11.616;2024-01-30T02:31:43;6.70;;;5.20;;
9224;SDS011;4647;48.072;11.616;2024-01-30T02:34:11;7.33;;;5.10;;
9224;SDS011;4647;48.072;11.616;2024-01-30T02:36:42;6.60;;;5.43;;
9224;SDS011;4647;48.072;11.616;2024-01-30T02:39:13;8.00;;;5.47;;
9224;SDS011;4647;48.072;11.616;2024-01-30T02:41:41;5.97;;;5.10;;
9224;SDS011;4647;48.072;11.616;2024-01-30T02:44:10;9.27;;;5.70;;
9224;SDS011;4647;48.072;11.616;2024-01-30T02:46:38;7.47;;;5.03;;
9224;SDS011;4647;48.072;11.616;2024-01-30T02:49:06;9.47;;;5.87;;
9224;SDS011;4647;48.072;11.616;2024-01-30T02:51:35;6.67;;;5.10;;
9224;SDS011;4647;48.072;11.616;2024-01-30T02:54:03;6.20;;;4.67;;
9224;SDS011;4647;48.072;11.616;2024-01-30T02:56:34;6.37;;;4.70;;
9224;SDS011;4647;48.072;11.616;2024-01-30T02:59:03;5.93;;;4.83;;
9224;SDS011;4647;48.072;11.616;2024-01-30T03:01:31;7.67;;;5.03;;
9224;SDS011;4647;48.072;11.616;2024-01-30T03:04:00;8.07;;;4.83;;
9224;SDS011;4647;48.072;11.616;2024-01-30T03:06:28;6.80;;;5.07;;
9224;SDS011;4647;48.072;11.616;2024-01-30T03:08:57;5.90;;;4.80;;
9224;SDS011;4647;48.072;11.616;2024-01-30T03:11:25;6.23;;;4.60;;
9224;SDS011;4647;48.072;11.616;2024-01-30T03:13:56;7.83;;;5.00;;
9224;SDS011;4647;48.072;11.616;2024-01-30T03:16:24;5.30;;;4.37;;
9224;SDS011;4647;48.072;11.616;2024-01-30T03:18:53;5.37;;;4.83;;
9224;SDS011;4647;48.072;11.616;2024-01-30T03:21:21;9.20;;;4.70;;
9224;SDS011;4647;48.072;11.616;2024-01-30T03:23:50;5.80;;;4.30;;
9224;SDS011;4647;48.072;11.616;2024-01-30T03:26:19;5.53;;;4.13;;
9224;SDS011;4647;48.072;11.616;2024-01-30T03:28:47;6.63;;;4.40;;
9224;SDS011;4647;48.072;11.616;2024-01-30T03:31:18;5.27;;;4.50;;
9224;SDS011;4647;48.072;11.616;2024-01-30T03:33:46;5.07;;;4.33;;
9224;SDS011;4647;48.072;11.616;2024-01-30T03:36:15;5.83;;;4.33;;
9224;SDS011;4647;48.072;11.616;2024-01-30T03:38:43;5.80;;;4.30;;
9224;SDS011;4647;48.072;11.616;2024-01-30T03:41:12;6.07;;;4.70;;
9224;SDS011;4647;48.072;11.616;2024-01-30T03:43:41;5.37;;;4.20;;
9224;SDS011;4647;48.072;11.616;2024-01-30T03:46:09;6.30;;;4.40;;
9224;SDS011;4647;48.072;11.616;2024-01-30T03:48:42;6.40;;;4.43;;
9224;SDS011;4647;48.072;11.616;2024-01-30T03:51:11;5.90;;;4.00;;
9224;SDS011;4647;48.072;11.616;2024-01-30T03:53:42;6.13;;;4.47;;
9224;SDS011;4647;48.072;11.616;2024-01-30T03:56:11;4.87;;;3.90;;
9224;SDS011;4647;48.072;11.616;2024-01-30T03:58:40;5.17;;;3.87;;
9224;SDS011;4647;48.072;11.616;2024-01-30T04:01:12;5.37;;;4.20;;
9224;SDS011;4647;48.072;11.616;2024-01-30T04:03:44;4.63;;;3.90;;
9224;SDS011;4647;48.072;11.616;2024-01-30T04:06:12;5.67;;;4.40;;
9224;SDS011;4647;48.072;11.616;2024-01-30T04:08:41;5.73;;;3.60;;
9224;SDS011;4647;48.072;11.616;2024-01-30T04:11:09;4.47;;;3.80;;
9224;SDS011;4647;48.072;11.616;2024-01-30T04:13:38;4.83;;;3.80;;
9224;SDS011;4647;48.072;11.616;2024-01-30T04:16:08;4.17;;;3.70;;
9224;SDS011;4647;48.072;11.616;2024-01-30T04:18:49;5.63;;;3.80;;
9224;SDS011;4647;48.072;11.616;2024-01-30T04:21:17;4.40;;;4.00;;
9224;SDS011;4647;48.072;11.616;2024-01-30T04:23:46;4.70;;;4.00;;
9224;SDS011;4647;48.072;11.616;2024-01-30T04:26:14;5.50;;;3.93;;
9224;SDS011;4647;48.072;11.616;2024-01-30T04:28:44;4.87;;;4.27;;
9224;SDS011;4647;48.072;11.616;2024-01-30T04:31:13;4.17;;;3.70;;
9224;SDS011;4647;48.072;11.616;2024-01-30T04:33:41;4.67;;;3.63;;
9224;SDS011;4647;48.072;11.616;2024-01-30T04:36:12;6.00;;;3.50;;
9224;SDS011;4647;48.072;11.616;2024-01-30T04:38:40;5.00;;;4.00;;
9224;SDS011;4647;48.072;11.616;2024-01-30T04:41:09;5.93;;;3.93;;
9224;SDS011;4647;48.072;11.616;2024-01-30T04:43:38;5.07;;;4.10;;
9224;SDS011;4647;48.072;11.616;2024-01-30T04:46:06;4.87;;;3.73;;
9224;SDS011;4647;48.072;11.616;2024-01-30T04:48:34;4.90;;;3.80;;
9224;SDS011;4647;48.072;11.616;2024-01-30T04:51:03;3.77;;;3.30;;
9224;SDS011;4647;48.072;11.616;2024-01-30T04:53:35;7.17;;;3.37;;
9224;SDS011;4647;48.072;11.616;2024-01-30T04:56:05;4.53;;;3.80;;
9224;SDS011;4647;48.072;11.616;2024-01-30T04:58:34;4.00;;;3.60;;
9224;SDS011;4647;48.072;11.616;2024-01-30T05:01:02;4.57;;;3.53;;
9224;SDS011;4647;48.072;11.616;2024-01-30T05:03:32;3.70;;;3.30;;
9224;SDS011;4647;48.072;11.616;2024-01-30T05:06:01;4.33;;;3.30;;
9224;SDS011;4647;48.072;11.616;2024-01-30T05:08:30;4.13;;;3.70;;
9224;SDS011;4647;48.072;11.616;2024-01-30T05:11:04;5.30;;;3.90;;
9224;SDS011;4647;48.072;11.616;2024-01-30T05:13:33;4.70;;;3.50;;
9224;SDS011;4647;48.072;11.616;2024-01-30T05:16:01;4.60;;;3.20;;
9224;SDS011;4647;48.072;11.616;2024-01-30T05:18:31;4.30;;;3.00;;
9224;SDS011;4647;48.072;11.616;2024-01-30T05:21:00;3.67;;;3.00;;
9224;SDS011;4647;48.072;11.616;2024-01-30T05:23:28;3.90;;;3.37;;
9224;SDS011;4647;48.072;11.616;2024-01-30T05:25:59;3.60;;;3.00;;
9224;SDS011;4647;48.072;11.616;2024-01-30T05:28:31;4.83;;;3.50;;
9224;SDS011;4647;48.072;11.616;2024-01-30T05:30:59;3.93;;;3.30;;
9224;SDS011;4647;48.072;11.616;2024-01-30T05:33:28;4.63;;;3.53;;
9224;SDS011;4647;48.072;11.616;2024-01-30T05:35:56;4.23;;;3.07;;
9224;SDS011;4647;48.072;11.616;2024-01-30T05:38:25;3.70;;;3.10;;
9224;SDS011;4647;48.072;11.616;2024-01-30T05:40:54;3.30;;;3.00;;
9224;SDS011;4647;48.072;11.616;2024-01-30T05:43:23;4.57;;;3.47;;
9224;SDS011;4647;48.072;11.616;2024-01-30T05:45:54;4.67;;;3.27;;
9224;SDS011;4647;48.072;11.616;2024-01-30T05:48:22;3.63;;;2.87;;
9224;SDS011;4647;48.072;11.616;2024-01-30T05:50:51;3.77;;;3.10;;
9224;SDS011;4647;48.072;11.616;2024-01-30T05:53:19;3.87;;;3.17;;
9224;SDS011;4647;48.072;11.616;2024-01-30T05:55:48;3.20;;;2.80;;
9224;SDS011;4647;48.072;11.616;2024-01-30T05:58:17;5.70;;;3.20;;
9224;SDS011;4647;48.072;11.616;2024-01-30T06:00:45;14.70;;;8.30;;
9224;SDS011;4647;48.072;11.616;2024-01-30T06:03:16;5.77;;;4.17;;
9224;SDS011;4647;48.072;11.616;2024-01-30T06:05:45;3.43;;;3.10;;
9224;SDS011;4647;48.072;11.616;2024-01-30T06:08:13;5.33;;;3.50;;
9224;SDS011;4647;48.072;11.616;2024-01-30T06:10:42;3.90;;;3.00;;
9224;SDS011;4647;48.072;11.616;2024-01-30T06:13:10;4.60;;;3.47;;
9224;SDS011;4647;48.072;11.616;2024-01-30T06:15:38;5.97;;;3.83;;
9224;SDS011;4647;48.072;11.616;2024-01-30T06:18:07;6.20;;;3.53;;
9224;SDS011;4647;48.072;11.616;2024-01-30T06:20:38;4.43;;;3.30;;
9224;SDS011;4647;48.072;11.616;2024-01-30T06:23:07;4.73;;;3.37;;
9224;SDS011;4647;48.072;11.616;2024-01-30T06:25:38;4.80;;;3.20;;
9224;SDS011;4647;48.072;11.616;2024-01-30T06:28:06;4.40;;;3.83;;
9224;SDS011;4647;48.072;11.616;2024-01-30T06:30:35;4.97;;;3.50;;
9224;SDS011;4647;48.072;11.616;2024-01-30T06:33:04;4.57;;;3.27;;
9224;SDS011;4647;48.072;11.616;2024-01-30T06:35:32;5.40;;;3.40;;
9224;SDS011;4647;48.072;11.616;2024-01-30T06:38:07;4.23;;;3.53;;
9224;SDS011;4647;48.072;11.616;2024-01-30T06:40:36;4.00;;;3.40;;
9224;SDS011;4647;48.072;11.616;2024-01-30T06:43:04;4.17;;;3.40;;
9224;SDS011;4647;48.072;11.616;2024-01-30T06:45:32;5.07;;;3.30;;
9224;SDS011;4647;48.072;11.616;2024-01-30T06:48:01;4.67;;;3.57;;
9224;SDS011;4647;48.072;11.616;2024-01-30T06:50:30;7.30;;;4.10;;
9224;SDS011;4647;48.072;11.616;2024-01-30T06:52:58;5.27;;;4.13;;
9224;SDS011;4647;48.072;11.616;2024-01-30T06:55:29;4.77;;;4.13;;
9224;SDS011;4647;48.072;11.616;2024-01-30T06:57:58;3.90;;;3.30;;
9224;SDS011;4647;48.072;11.616;2024-01-30T07:00:26;6.80;;;3.53;;
9224;SDS011;4647;48.072;11.616;2024-01-30T07:02:55;3.93;;;3.50;;
9224;SDS011;4647;48.072;11.616;2024-01-30T07:05:24;4.13;;;3.70;;
9224;SDS011;4647;48.072;11.616;2024-01-30T07:07:52;3.90;;;3.47;;
9224;SDS011;4647;48.072;11.616;2024-01-30T07:10:23;5.17;;;3.47;;
9224;SDS011;4647;48.072;11.616;2024-01-30T07:12:55;5.80;;;4.00;;
9224;SDS011;4647;48.072;11.616;2024-01-30T07:15:24;9.40;;;4.10;;
9224;SDS011;4647;48.072;11.616;2024-01-30T07:17:52;4.90;;;4.13;;
9224;SDS011;4647;48.072;11.616;2024-01-30T07:20:21;6.10;;;4.70;;
9224;SDS011;4647;48.072;11.616;2024-01-30T07:22:49;8.73;;;4.57;;
9224;SDS011;4647;48.072;11.616;2024-01-30T07:25:18;6.90;;;4.73;;
9224;SDS011;4647;48.072;11.616;2024-01-30T07:27:46;10.13;;;4.50;;
9224;SDS011;4647;48.072;11.616;2024-01-30T07:30:20;6.30;;;4.53;;
9224;SDS011;4647;48.072;11.616;2024-01-30T07:32:49;5.83;;;4.07;;
9224;SDS011;4647;48.072;11.616;2024-01-30T07:35:17;7.57;;;4.53;;
9224;SDS011;4647;48.072;11.616;2024-01-30T07:37:46;6.10;;;4.40;;
9224;SDS011;4647;48.072;11.616;2024-01-30T07:40:14;4.97;;;4.43;;
9224;SDS011;4647;48.072;11.616;2024-01-30T07:42:43;5.50;;;4.50;;
9224;SDS011;4647;48.072;11.616;2024-01-30T07:45:12;8.77;;;4.90;;
9224;SDS011;4647;48.072;11.616;2024-01-30T07:47:43;6.83;;;5.07;;
9224;SDS011;4647;48.072;11.616;2024-01-30T07:50:14;9.50;;;4.70;;
9224;SDS011;4647;48.072;11.616;2024-01-30T07:52:44;6.73;;;4.67;;
9224;SDS011;4647;48.072;11.616;2024-01-30T07:55:16;7.67;;;4.67;;
9224;SDS011;4647;48.072;11.616;2024-01-30T07:57:46;7.23;;;4.20;;
9224;SDS011;4647;48.072;11.616;2024-01-30T08:00:15;5.47;;;4.53;;
9224;SDS011;4647;48.072;11.616;2024-01-30T08:02:47;7.93;;;4.27;;
9224;SDS011;4647;48.072;11.616;2024-01-30T08:05:19;5.13;;;3.93;;
9224;SDS011;4647;48.072;11.616;2024-01-30T08:07:48;9.13;;;4.07;;
9224;SDS011;4647;48.072;11.616;2024-01-30T08:10:17;5.27;;;4.03;;
9224;SDS011;4647;48.072;11.616;2024-01-30T08:12:46;5.27;;;3.80;;
9224;SDS011;4647;48.072;11.616;2024-01-30T08:15:14;5.07;;;3.80;;
9224;SDS011;4647;48.072;11.616;2024-01-30T08:17:43;5.10;;;4.20;;
9224;SDS011;4647;48.072;11.616;2024-01-30T08:20:15;5.37;;;4.03;;
9224;SDS011;4647;48.072;11.616;2024-01-30T08:22:45;4.40;;;3.90;;
9224;SDS011;4647;48.072;11.616;2024-01-30T08:25:14;6.13;;;3.90;;
9224;SDS011;4647;48.072;11.616;2024-01-30T08:27:43;4.67;;;3.47;;
9224;SDS011;4647;48.072;11.616;2024-01-30T08:30:15;4.73;;;3.43;;
9224;SDS011;4647;48.072;11.616;2024-01-30T08:32:44;7.00;;;3.90;;
9224;SDS011;4647;48.072;11.616;2024-01-30T08:35:15;4.67;;;4.10;;
9224;SDS011;4647;48.072;11.616;2024-01-30T08:37:43;6.33;;;3.90;;
9224;SDS011;4647;48.072;11.616;2024-01-30T08:40:12;4.87;;;4.00;;
9224;SDS011;4647;48.072;11.616;2024-01-30T08:42:41;5.47;;;3.87;;
9224;SDS011;4647;48.072;11.616;2024-01-30T08:45:09;7.17;;;3.67;;
9224;SDS011;4647;48.072;11.616;2024-01-30T08:47:41;4.93;;;3.43;;
9224;SDS011;4647;48.072;11.616;2024-01-30T08:50:09;5.60;;;3.80;;
9224;SDS011;4647;48.072;11.616;2024-01-30T08:52:41;7.17;;;3.90;;
9224;SDS011;4647;48.072;11.616;2024-01-30T08:55:13;5.83;;;3.70;;
9224;SDS011;4647;48.072;11.616;2024-01-30T08:57:41;4.87;;;3.47;;
9224;SDS011;4647;48.072;11.616;2024-01-30T09:00:10;9.13;;;3.60;;
9224;SDS011;4647;48.072;11.616;2024-01-30T09:02:40;6.57;;;3.50;;
9224;SDS011;4647;48.072;11.616;2024-01-30T09:05:08;5.07;;;3.73;;
9224;SDS011;4647;48.072;11.616;2024-01-30T09:07:37;7.37;;;4.07;;
9224;SDS011;4647;48.072;11.616;2024-01-30T09:10:09;6.60;;;3.97;;
9224;SDS011;4647;48.072;11.616;2024-01-30T09:12:37;4.30;;;3.50;;
9224;SDS011;4647;48.072;11.616;2024-01-30T09:15:06;5.57;;;3.20;;
9224;SDS011;4647;48.072;11.616;2024-01-30T09:17:37;5.63;;;3.50;;
9224;SDS011;4647;48.072;11.616;2024-01-30T09:20:06;5.03;;;3.20;;
9224;SDS011;4647;48.072;11.616;2024-01-30T09:22:36;8.00;;;3.33;;
9224;SDS011;4647;48.072;11.616;2024-01-30T09:25:04;6.40;;;3.37;;
9224;SDS011;4647;48.072;11.616;2024-01-30T09:27:36;4.80;;;3.30;;
9224;SDS011;4647;48.072;11.616;2024-01-30T09:30:06;11.10;;;3.10;;
9224;SDS011;4647;48.072;11.616;2024-01-30T09:32:35;6.17;;;2.93;;
9224;SDS011;4647;48.072;11.616;2024-01-30T09:35:04;5.30;;;3.13;;
9224;SDS011;4647;48.072;11.616;2024-01-30T09:37:35;4.53;;;3.20;;
9224;SDS011;4647;48.072;11.616;2024-01-30T09:40:04;8.97;;;3.30;;
9224;SDS011;4647;48.072;11.616;2024-01-30T09:42:36;11.23;;;3.40;;
9224;SDS011;4647;48.072;11.616;2024-01-30T09:45:05;7.87;;;3.40;;
9224;SDS011;4647;48.072;11.616;2024-01-30T09:47:35;9.53;;;3.20;;
9224;SDS011;4647;48.072;11.616;2024-01-30T09:50:08;5.63;;;2.50;;
9224;SDS011;4647;48.072;11.616;2024-01-30T09:52:38;5.77;;;3.00;;
9224;SDS011;4647;48.072;11.616;2024-01-30T09:55:07;4.60;;;2.83;;
9224;SDS011;4647;48.072;11.616;2024-01-30T09:57:39;7.57;;;3.53;;
9224;SDS011;4647;48.072;11.616;2024-01-30T10:00:10;9.33;;;3.23;;
9224;SDS011;4647;48.072;11.616;2024-01-30T10:02:40;6.93;;;2.73;;
9224;SDS011;4647;48.072;11.616;2024-01-30T10:05:10;6.77;;;3.03;;
9224;SDS011;4647;48.072;11.616;2024-01-30T10:07:49;13.30;;;3.30;;
9224;SDS011;4647;48.072;11.616;2024-01-30T10:10:21;9.33;;;2.60;;
9224;SDS011;4647;48.072;11.616;2024-01-30T10:12:52;14.90;;;3.03;;
9224;SDS011;4647;48.072;11.616;2024-01-30T10:15:21;11.40;;;3.67;;
9224;SDS011;4647;48.072;11.616;2024-01-30T10:17:50;7.77;;;3.37;;
9224;SDS011;4647;48.072;11.616;2024-01-30T10:20:18;5.23;;;2.60;;
9224;SDS011;4647;48.072;11.616;2024-01-30T10:22:49;7.53;;;2.93;;
9224;SDS011;4647;48.072;11.616;2024-01-30T10:25:17;10.20;;;2.50;;
9224;SDS011;4647;48.072;11.616;2024-01-30T10:27:46;5.97;;;2.63;;
9224;SDS011;4647;48.072;11.616;2024-01-30T10:30:17;5.80;;;2.60;;
9224;SDS011;4647;48.072;11.616;2024-01-30T10:32:46;9.20;;;2.50;;
9224;SDS011;4647;48.072;11.616;2024-01-30T10:35:15;8.33;;;2.30;;
9224;SDS011;4647;48.072;11.616;2024-01-30T10:37:44;3.87;;;2.17;;
9224;SDS011;4647;48.072;11.616;2024-01-30T10:40:15;5.83;;;2.30;;
9224;SDS011;4647;48.072;11.616;2024-01-30T10:42:44;7.07;;;2.43;;
9224;SDS011;4647;48.072;11.616;2024-01-30T10:45:14;3.53;;;2.20;;
9224;SDS011;4647;48.072;11.616;2024-01-30T10:47:48;4.57;;;2.47;;
9224;SDS011;4647;48.072;11.616;2024-01-30T10:50:17;13.70;;;3.10;;
9224;SDS011;4647;48.072;11.616;2024-01-30T10:52:46;10.90;;;3.10;;
9224;SDS011;4647;48.072;11.616;2024-01-30T10:55:15;7.93;;;3.17;;
9224;SDS011;4647;48.072;11.616;2024-01-30T10:57:44;7.73;;;3.07;;
9224;SDS011;4647;48.072;11.616;2024-01-30T11:00:13;3.80;;;2.20;;
9224;SDS011;4647;48.072;11.616;2024-01-30T11:02:48;6.77;;;2.60;;
9224;SDS011;4647;48.072;11.616;2024-01-30T11:05:23;12.70;;;2.70;;
9224;SDS011;4647;48.072;11.616;2024-01-30T11:07:53;12.47;;;2.90;;
9224;SDS011;4647;48.072;11.616;2024-01-30T11:10:22;7.30;;;2.70;;
9224;SDS011;4647;48.072;11.616;2024-01-30T11:12:53;7.20;;;2.70;;
9224;SDS011;4647;48.072;11.616;2024-01-30T11:15:24;8.90;;;3.30;;
9224;SDS011;4647;48.072;11.616;2024-01-30T11:17:52;9.37;;;5.20;;
9224;SDS011;4647;48.072;11.616;2024-01-30T11:20:21;5.33;;;2.47;;
9224;SDS011;4647;48.072;11.616;2024-01-30T11:22:51;6.07;;;2.57;;
9224;SDS011;4647;48.072;11.616;2024-01-30T11:25:21;6.30;;;2.80;;
9224;SDS011;4647;48.072;11.616;2024-01-30T11:27:51;4.23;;;2.30;;
9224;SDS011;4647;48.072;11.616;2024-01-30T11:30:26;7.63;;;2.90;;
9224;SDS011;4647;48.072;11.616;2024-01-30T11:32:59;6.97;;;3.10;;
9224;SDS011;4647;48.072;11.616;2024-01-30T11:35:26;9.83;;;4.00;;
9224;SDS011;4647;48.072;11.616;2024-01-30T11:37:54;13.17;;;3.00;;
9224;SDS011;4647;48.072;11.616;2024-01-30T11:40:27;4.43;;;2.70;;
9224;SDS011;4647;48.072;11.616;2024-01-30T11:42:56;9.40;;;3.27;;
9224;SDS011;4647;48.072;11.616;2024-01-30T11:45:30;5.73;;;3.13;;
9224;SDS011;4647;48.072;11.616;2024-01-30T11:47:59;6.77;;;3.07;;
9224;SDS011;4647;48.072;11.616;2024-01-30T11:50:28;7.07;;;2.80;;
9224;SDS011;4647;48.072;11.616;2024-01-30T11:52:58;6.57;;;3.07;;
9224;SDS011;4647;48.072;11.616;2024-01-30T11:55:28;7.87;;;2.73;;
9224;SDS011;4647;48.072;11.616;2024-01-30T11:57:57;13.40;;;2.97;;
9224;SDS011;4647;48.072;11.616;2024-01-30T12:00:33;6.23;;;2.80;;
9224;SDS011;4647;48.072;11.616;2024-01-30T12:03:01;6.17;;;3.63;;
9224;SDS011;4647;48.072;11.616;2024-01-30T12:05:32;6.77;;;2.77;;
9224;SDS011;4647;48.072;11.616;2024-01-30T12:08:01;6.20;;;2.80;;
9224;SDS011;4647;48.072;11.616;2024-01-30T12:10:30;7.60;;;2.37;;
9224;SDS011;4647;48.072;11.616;2024-01-30T12:12:58;5.63;;;2.67;;
9224;SDS011;4647;48.072;11.616;2024-01-30T12:15:27;10.33;;;2.87;;
9224;SDS011;4647;48.072;11.616;2024-01-30T12:18:06;8.47;;;3.03;;
9224;SDS011;4647;48.072;11.616;2024-01-30T12:20:35;8.83;;;2.60;;
9224;SDS011;4647;48.072;11.616;2024-01-30T12:23:04;8.63;;;2.97;;
9224;SDS011;4647;48.072;11.616;2024-01-30T12:25:33;4.10;;;2.77;;
9224;SDS011;4647;48.072;11.616;2024-01-30T12:28:01;7.50;;;2.87;;
9224;SDS011;4647;48.072;11.616;2024-01-30T12:30:31;7.23;;;3.20;;
9224;SDS011;4647;48.072;11.616;2024-01-30T12:32:59;8.13;;;2.97;;
9224;SDS011;4647;48.072;11.616;2024-01-30T12:35:32;9.60;;;2.37;;
9224;SDS011;4647;48.072;11.616;2024-01-30T12:38:02;5.10;;;2.60;;
9224;SDS011;4647;48.072;11.616;2024-01-30T12:40:33;8.40;;;2.97;;
9224;SDS011;4647;48.072;11.616;2024-01-30T12:43:01;14.53;;;3.10;;
9224;SDS011;4647;48.072;11.616;2024-01-30T12:45:30;9.23;;;3.60;;
9224;SDS011;4647;48.072;11.616;2024-01-30T12:47:59;5.63;;;2.47;;
9224;SDS011;4647;48.072;11.616;2024-01-30T12:50:27;13.87;;;3.10;;
9224;SDS011;4647;48.072;11.616;2024-01-30T12:52:58;9.90;;;3.60;;
9224;SDS011;4647;48.072;11.616;2024-01-30T12:55:27;13.40;;;3.13;;
9224;SDS011;4647;48.072;11.616;2024-01-30T12:57:55;13.93;;;3.93;;
9224;SDS011;4647;48.072;11.616;2024-01-30T13:00:24;9.13;;;3.20;;
9224;SDS011;4647;48.072;11.616;2024-01-30T13:02:52;9.20;;;3.27;;
9224;SDS011;4647;48.072;11.616;2024-01-30T13:05:21;8.23;;;3.47;;
9224;SDS011;4647;48.072;11.616;2024-01-30T13:07:50;10.70;;;3.30;;
9224;SDS011;4647;48.072;11.616;2024-01-30T13:10:21;9.03;;;4.13;;
9224;SDS011;4647;48.072;11.616;2024-01-30T13:12:50;11.10;;;3.30;;
9224;SDS011;4647;48.072;11.616;2024-01-30T13:15:18;14.57;;;4.53;;
9224;SDS011;4647;48.072;11.616;2024-01-30T13:17:47;7.23;;;3.03;;
9224;SDS011;4647;48.072;11.616;2024-01-30T13:20:18;18.67;;;3.10;;
9224;SDS011;4647;48.072;11.616;2024-01-30T13:22:47;9.87;;;3.10;;
9224;SDS011;4647;48.072;11.616;2024-01-30T13:25:16;8.53;;;2.70;;
9224;SDS011;4647;48.072;11.616;2024-01-30T13:27:47;8.87;;;2.97;;
9224;SDS011;4647;48.072;11.616;2024-01-30T13:30:15;11.97;;;3.43;;
9224;SDS011;4647;48.072;11.616;2024-01-30T13:32:44;8.33;;;2.80;;
9224;SDS011;4647;48.072;11.616;2024-01-30T13:35:12;6.07;;;3.17;;
9224;SDS011;4647;48.072;11.616;2024-01-30T13:37:43;7.43;;;3.03;;
9224;SDS011;4647;48.072;11.616;2024-01-30T13:40:13;16.30;;;3.90;;
9224;SDS011;4647;48.072;11.616;2024-01-30T13:42:41;9.97;;;3.10;;
9224;SDS011;4647;48.072;11.616;2024-01-30T13:45:13;5.97;;;2.57;;
9224;SDS011;4647;48.072;11.616;2024-01-30T13:47:41;2.93;;;2.33;;
9224;SDS011;4647;48.072;11.616;2024-01-30T13:50:09;5.87;;;2.67;;
9224;SDS011;4647;48.072;11.616;2024-01-30T13:52:41;5.30;;;1.97;;
9224;SDS011;4647;48.072;11.616;2024-01-30T13:55:10;5.93;;;2.50;;
9224;SDS011;4647;48.072;11.616;2024-01-30T13:57:38;9.17;;;2.80;;
9224;SDS011;4647;48.072;11.616;2024-01-30T14:00:09;8.60;;;3.00;;
9224;SDS011;4647;48.072;11.616;2024-01-30T14:02:44;5.03;;;2.70;;
9224;SDS011;4647;48.072;11.616;2024-01-30T14:05:12;4.80;;;2.80;;
9224;SDS011;4647;48.072;11.616;2024-01-30T14:07:42;7.87;;;3.00;;
9224;SDS011;4647;48.072;11.616;2024-01-30T14:10:11;9.30;;;3.23;;
9224;SDS011;4647;48.072;11.616;2024-01-30T14:12:41;9.77;;;3.13;;
9224;SDS011;4647;48.072;11.616;2024-01-30T14:15:10;7.60;;;3.10;;
9224;SDS011;4647;48.072;11.616;2024-01-30T14:17:40;7.83;;;3.27;;
9224;SDS011;4647;48.072;11.616;2024-01-30T14:20:11;4.43;;;3.03;;
9224;SDS011;4647;48.072;11.616;2024-01-30T14:22:41;9.00;;;2.87;;
9224;SDS011;4647;48.072;11.616;2024-01-30T14:25:10;3.37;;;2.57;;
9224;SDS011;4647;48.072;11.616;2024-01-30T14:27:38;10.07;;;3.23;;
9224;SDS011;4647;48.072;11.616;2024-01-30T14:30:08;8.43;;;2.93;;
9224;SDS011;4647;48.072;11.616;2024-01-30T14:32:39;7.27;;;2.63;;
9224;SDS011;4647;48.072;11.616;2024-01-30T14:35:12;6.93;;;2.60;;
9224;SDS011;4647;48.072;11.616;2024-01-30T14:37:41;8.80;;;2.90;;
9224;SDS011;4647;48.072;11.616;2024-01-30T14:40:09;6.40;;;2.57;;
9224;SDS011;4647;48.072;11.616;2024-01-30T14:42:38;8.90;;;2.40;;
9224;SDS011;4647;48.072;11.616;2024-01-30T14:45:06;8.43;;;2.70;;
9224;SDS011;4647;48.072;11.616;2024-01-30T14:47:36;4.90;;;2.30;;
9224;SDS011;4647;48.072;11.616;2024-01-30T14:50:06;3.83;;;2.30;;
9224;SDS011;4647;48.072;11.616;2024-01-30T14:52:37;5.70;;;2.23;;
9224;SDS011;4647;48.072;11.616;2024-01-30T14:55:06;4.93;;;1.87;;
9224;SDS011;4647;48.072;11.616;2024-01-30T14:57:35;6.30;;;2.30;;
9224;SDS011;4647;48.072;11.616;2024-01-30T15:00:07;5.97;;;2.40;;
9224;SDS011;4647;48.072;11.616;2024-01-30T15:02:36;5.30;;;2.30;;
9224;SDS011;4647;48.072;11.616;2024-01-30T15:05:05;5.63;;;2.50;;
9224;SDS011;4647;48.072;11.616;2024-01-30T15:07:38;6.57;;;2.33;;
9224;SDS011;4647;48.072;11.616;2024-01-30T15:10:07;4.97;;;2.37;;
9224;SDS011;4647;48.072;11.616;2024-01-30T15:12:37;4.80;;;2.40;;